首页
METAR-TAF:

METAR-TAF

机场 :

Rawlins Municipal Airport (Harvey Field)

Rawlins, 怀俄明州, 美国

纬度: 41-48-20N, 经度: 107-11-59W, 海拔: 2077米

当前天气观测

该预报发布于14分钟前的15:53 UTC
风速11节,风向西,有时为17节阵风
温度 9°C
湿度 49%
气压 1022 hPa
能見度: 16.1公里
天空无云

METAR: KRWL 081553Z AUTO 26011G17KT 10SM CLR 09/M01 A3017 RMK AO2 SLP171 T00891011

时间: 10:07 (16:07 UTC)

预报

该预报发布于1小时和2分钟前的15:05 UTC
预报有效从08日的 15点(UTC)到 09日的 12点(UTC)
风速15节,风向西
能見度: 10公里
天空无云
从 08日的 1900点(UTC)
风速13节,风向西,有时为20节阵风
能見度: 10公里
散云层高于10000英尺
从 09日的 0200点(UTC)
风速6节,风向
能見度: 10公里
天空无云

TAF: KRWL 081505Z 0815/0912 26015KT P6SM SKC FM081900 27013G20KT P6SM SCT100 FM090200 35006KT P6SM SKC

超过4000个机场的气象观测和天气预报(METAR&TAF报告)。

可查询的气象台以黄色和红色小点在地图上表示。

将鼠标移到小点上方,可查看气象台名称。

然后点击查看天气观测和预报。

如需切换地图:点击带黑十字的绿色按钮放大地图;点击带横线的绿色按钮缩小地图;或者点击绿色箭头查看邻近地区的地图。


METAR-TAF: